YBBN/BNE METAR and TAF weather

Enter ICAO airport designator
Station Type Date Time Source
YBBN METAR 2024/04/17 18:00 UTC NOAA

YBBN 171800Z AUTO 20006KT 9999 // NCD 20/19 Q1017 RF00.0/000.0


Station Type Date Time Source
YBBN Decoded METAR 2024/04/17 18:00 UTC NOAA

Brisbane Airport M. O, Australia (YBBN) 27-23S 153-06E 5M
Apr 17, 2024 - 02:00 PM EDT / 2024.04.17 1800 UTC
Wind: from the SSW (200 degrees) at 7 MPH (6 KT):0
Visibility: greater than 7 mile(s):0
Temperature: 68 F (20 C)
Dew Point: 66 F (19 C)
Relative Humidity: 93%
Pressure (altimeter): 30.03 in. Hg (1017 hPa)
ob: YBBN 171800Z AUTO 20006KT 9999 // NCD 20/19 Q1017 RF00.0/000.0
cycle: 18

Station Type Date Time Source
YBBN TAF 2024/04/17 18:00 UTC NOAA